• Join FlightAware (Why Join?)
  • Login
  • US Flag 
12:41AM EDT


 

Airport Tracker/Info


-or-


 

Live Flight TrackerFlight Track Log ✈ AAL1459 ✈ 05-Jul-2013 ✈ KORD - KRNO

Flight Track Log - Related Links

Times and Time Zones

All times are in EDT time to prevent confusion due to time zone crossing. See the AAL1459 flight status page for this flight to view local times or setup timezone preferences in your user account.

Time Position Orientation Groundspeed Altitude Reporting Facility
EDT Latitude Longitude Course Direction KTS MPH feet Rate Location/Type
07:41PM 41.9630 -87.8880 222° Southwest 125 144  Level FlightAware
07:41PM 41.9430 -87.9170 227° Southwest 167 192 1,900 2,340 Climbing FlightAware
07:42PM 41.9310 -87.9440 239° Southwest 201 231 2,500 1,260 Climbing FlightAware
07:42PM 41.9250 -87.9570 238° Southwest 213 245 2,800 1,920 Climbing FlightAware
07:43PM 41.9070 -87.9990 240° Southwest 256 295 3,900 2,040 Climbing FlightAware
07:43PM 41.9050 -88.0160 261° West 264 304 4,300 1,620 Climbing FlightAware
07:43PM 41.9050 -88.0580 270° West 271 312 4,900 1,080 Climbing FlightAware
07:43PM 41.9100 -88.0900 282° West 266 306 5,100 1,320 Climbing FlightAware
07:44PM 41.9180 -88.1070 302° West 269 310 5,600 3,180 Climbing FlightAware
07:44PM 41.9420 -88.1430 312° West 268 308 7,200 2,880 Climbing FlightAware
07:45PM 41.9640 -88.1800 309° West 286 329 8,300 2,340 Climbing FlightAware
07:45PM 41.9810 -88.2070 310° West 292 336 9,200 2,280 Climbing FlightAware
07:46PM 42.0140 -88.2610 309° West 312 359 10,600 1,980 Climbing FlightAware
07:46PM 42.0630 -88.3410 310° West 358 412 12,000 1,860 Climbing FlightAware
07:47PM 42.0900 -88.4110 297° West 371 427 13,200 2,520 Climbing FlightAware
07:48PM 42.1150 -88.5050 290° West 372 428 15,300 2,520 Climbing FlightAware
07:48PM 42.1380 -88.5920 290° West 385 443 16,700 2,220 Climbing FlightAware
07:49PM 42.1560 -88.6870 284° West 390 449 18,300 2,220 Climbing FlightAware
07:50PM 42.1550 -88.7920 269° West 395 455 19,900 2,100 Climbing FlightAware
07:50PM 42.1540 -88.9000 269° West 402 463 21,400 1,920 Climbing FlightAware
07:51PM 42.1530 -88.9970 269° West 409 471 22,600 1,800 Climbing FlightAware
07:52PM 42.1520 -89.1110 269° West 418 481 23,900 1,680 Climbing FlightAware
07:52PM 42.1510 -89.1920 269° West 423 487 24,700 1,500 Climbing FlightAware
07:53PM 42.1500 -89.3160 269° West 432 497 25,900 1,380 Climbing FlightAware
07:54PM 42.1480 -89.4200 269° West 440 506 26,700 1,260 Climbing FlightAware
07:54PM 42.1480 -89.5120 270° West 445 512 27,400 1,260 Climbing FlightAware
07:55PM 42.1470 -89.6380 269° West 452 520 28,400 1,080 Climbing FlightAware
07:56PM 42.1440 -89.7660 268° West 460 529 29,100 840 Climbing FlightAware
07:56PM 42.1390 -89.8630 266° West 472 543 29,500 1,080 Climbing FlightAware
07:57PM 42.1320 -89.9860 266° West 472 543 30,500 1,500 Climbing FlightAware
07:58PM 42.1250 -90.1040 265° West 466 536 31,600 1,380 Climbing FlightAware
07:59PM 42.1170 -90.2350 265° West 466 536 32,500 1,140 Climbing FlightAware
07:59PM 42.1190 -90.3400 272° West 460 529 33,200 1,260 Climbing FlightAware
08:00PM 42.1250 -90.4760 273° West 454 522 34,300 1,140 Climbing FlightAware
08:01PM 42.1290 -90.5860 273° West 454 522 34,900 840 Climbing FlightAware
08:01PM 42.1330 -90.6890 273° West 453 521 35,400 720 Climbing FlightAware
08:02PM 42.1370 -90.7990 273° West 453 521 35,900 420 Climbing FlightAware
08:03PM 42.1420 -90.9280 273° West 453 521 36,000 60 Climbing FlightAware
08:03PM 42.1450 -91.0250 272° West 451 519 36,000  Level FlightAware
08:04PM 42.1500 -91.1750 273° West 449 517 36,000  Level FlightAware
08:05PM 42.1540 -91.2820 273° West 449 517 36,000  Level FlightAware
08:05PM 42.1570 -91.3990 272° West 447 514 36,000  Level FlightAware
08:06PM 42.1610 -91.5230 273° West 447 514 36,000  Level FlightAware
08:07PM 42.1640 -91.6340 272° West 449 517 36,000  Level FlightAware
08:08PM 42.1680 -91.7600 272° West 449 517 36,000  Level FlightAware
08:08PM 42.1710 -91.8590 272° West 448 516 36,000  Level FlightAware
08:09PM 42.1730 -91.9650 271° West 448 516 36,000  Level FlightAware
08:10PM 42.1780 -92.1350 272° West 448 516 36,000  Level FlightAware
08:11PM 42.1810 -92.2470 272° West 448 516 36,000  Level FlightAware
08:11PM 42.1830 -92.3470 272° West 448 516 36,000  Level FlightAware
08:12PM 42.1850 -92.4690 271° West 447 514 36,000  Level FlightAware
08:13PM 42.1880 -92.5830 272° West 447 514 36,000  Level FlightAware
08:13PM 42.1900 -92.6940 271° West 447 514 36,000  Level FlightAware
08:14PM 42.1920 -92.8130 271° West 444 511 36,000  Level FlightAware
08:15PM 42.1940 -92.9240 271° West 443 510 36,000  Level FlightAware
08:15PM 42.1959 -93.0141 272° West 441 507 36,000  Level FlightAware ADS-B
08:16PM 42.1973 -93.0973 271° West 440 506 36,000  Level FlightAware ADS-B
08:16PM 42.1986 -93.1817 271° West 440 506 36,000  Level FlightAware ADS-B
08:17PM 42.1998 -93.2655 271° West 441 507 36,000  Level FlightAware ADS-B
08:17PM 42.2010 -93.3499 271° West 441 507 36,000  Level FlightAware ADS-B
08:18PM 42.2022 -93.4320 271° West 440 506 36,000  Level FlightAware ADS-B
08:18PM 42.2032 -93.5172 271° West 440 506 36,000  Level FlightAware ADS-B
08:19PM 42.2042 -93.6042 271° West 441 507 36,000  Level FlightAware ADS-B
08:19PM 42.2051 -93.6882 271° West 441 507 36,000  Level FlightAware ADS-B
08:20PM 42.2059 -93.7713 271° West 441 507 36,000  Level FlightAware ADS-B
08:20PM 42.2068 -93.8542 271° West 441 507 36,000  Level FlightAware ADS-B
08:21PM 42.2077 -93.9390 271° West 442 509 36,000  Level FlightAware ADS-B
08:21PM 42.2084 -94.0222 271° West 442 509 36,000  Level FlightAware ADS-B
08:22PM 42.2090 -94.1120 271° West 443 510 36,000  Level FlightAware ADS-B
08:22PM 42.2096 -94.1960 271° West 441 507 36,000  Level FlightAware ADS-B
08:23PM 42.2102 -94.2786 271° West 439 505 36,000  Level FlightAware ADS-B
08:23PM 42.2107 -94.3614 270° West 438 504 36,000  Level FlightAware ADS-B
08:24PM 42.2110 -94.4444 270° West 438 504 36,000  Level FlightAware ADS-B
08:24PM 42.2114 -94.5431 270° West 437 503 36,000  Level FlightAware ADS-B
08:25PM 42.2116 -94.6261 270° West 436 502 36,000  Level FlightAware ADS-B
08:26PM 42.2119 -94.7673 270° West 435 501 36,000  Level FlightAware ADS-B
08:26PM 42.2119 -94.8495 270° West 434 499 36,000  Level FlightAware ADS-B
08:27PM 42.2119 -94.9306 270° West 433 498 36,000  Level FlightAware ADS-B
08:27PM 42.2120 -95.0132 270° West 433 498 36,000  Level FlightAware ADS-B
08:28PM 42.2119 -95.0944 270° West 432 497 36,000  Level FlightAware ADS-B
08:28PM 42.2118 -95.1756 270° West 432 497 36,000  Level FlightAware ADS-B
08:29PM 42.2117 -95.2586 270° West 432 497 36,000  Level FlightAware ADS-B
08:29PM 42.2113 -95.3401 270° West 432 497 36,000  Level FlightAware ADS-B
08:30PM 42.2109 -95.4225 270° West 434 499 36,000  Level FlightAware ADS-B
08:30PM 42.2105 -95.5054 270° West 435 501 36,000  Level FlightAware ADS-B
08:31PM 42.2101 -95.5892 270° West 436 502 36,000  Level FlightAware ADS-B
08:31PM 42.2095 -95.6720 269° West 437 503 36,000  Level FlightAware ADS-B
08:32PM 42.2090 -95.7544 270° West 437 503 36,000  Level FlightAware ADS-B
08:32PM 42.2084 -95.8365 269° West 437 503 36,000  Level FlightAware ADS-B
08:33PM 42.2078 -95.9186 269° West 437 503 36,000  Level FlightAware ADS-B
08:33PM 42.2072 -96.0006 269° West 436 502 36,000  Level FlightAware ADS-B
08:34PM 42.2065 -96.0834 269° West 437 503 36,000  Level FlightAware ADS-B
08:34PM 42.2055 -96.1655 269° West 438 504 36,000  Level FlightAware ADS-B
08:35PM 42.2044 -96.2471 269° West 438 504 36,000  Level FlightAware ADS-B
08:35PM 42.2036 -96.3302 269° West 438 504 36,000  Level FlightAware ADS-B
08:36PM 42.2027 -96.4123 269° West 439 505 36,000  Level FlightAware ADS-B
08:36PM 42.2017 -96.4946 269° West 439 505 36,000  Level FlightAware ADS-B
08:37PM 42.2004 -96.5781 269° West 438 504 36,000  Level FlightAware ADS-B
08:37PM 42.1993 -96.6598 269° West 438 504 36,000  Level FlightAware ADS-B
08:38PM 42.1980 -96.7422 269° West 437 503 36,000  Level FlightAware ADS-B
08:38PM 42.1967 -96.8253 269° West 434 499 36,000  Level FlightAware ADS-B
08:39PM 42.1951 -96.9130 269° West 431 496 36,000  Level FlightAware ADS-B
08:39PM 42.1937 -96.9949 269° West 431 496 36,000  Level FlightAware ADS-B
08:40PM 42.1922 -97.0765 269° West 431 496 36,000  Level FlightAware ADS-B
08:41PM 42.1906 -97.1578 269° West 430 495 36,000  Level FlightAware ADS-B
08:41PM 42.1886 -97.2582 268° West 428 493 36,000  Level FlightAware ADS-B
08:42PM 42.1871 -97.3379 269° West 425 489 36,000  Level FlightAware ADS-B
08:42PM 42.1855 -97.4168 268° West 422 486 36,000  Level FlightAware ADS-B
08:43PM 42.1809 -97.6184 268° West 420 483 36,000  Level FlightAware ADS-B
08:44PM 42.1790 -97.6980 268° West 419 482 36,000  Level FlightAware ADS-B
08:45PM 42.1745 -97.8799 268° West 419 482 36,000  Level FlightAware ADS-B
08:46PM 42.1725 -97.9580 268° West 419 482 36,000  Level FlightAware ADS-B
08:46PM 42.1703 -98.0410 268° West 419 482 36,000  Level FlightAware ADS-B
08:47PM 42.1680 -98.1225 268° West 419 482 36,000  Level FlightAware ADS-B
08:48PM 42.1638 -98.2710 268° West 422 486 36,000  Level FlightAware ADS-B
08:49PM 42.1583 -98.4551 268° West 425 489 36,000  Level FlightAware ADS-B
08:49PM 42.1559 -98.5346 268° West 426 490 36,000  Level FlightAware ADS-B
08:50PM 42.1533 -98.6164 268° West 427 491 36,000  Level FlightAware ADS-B
08:51PM 42.1490 -98.7508 268° West 424 488 36,000  Level FlightAware ADS-B
08:51PM 42.1463 -98.8297 267° West 423 487 36,000  Level FlightAware ADS-B
08:52PM 42.1436 -98.9097 267° West 423 487 36,000  Level FlightAware ADS-B
08:52PM 42.1408 -98.9885 267° West 423 487 36,000  Level FlightAware ADS-B
08:53PM 42.1379 -99.0686 267° West 423 487 36,000  Level FlightAware ADS-B
08:53PM 42.1350 -99.1476 267° West 424 488 36,000  Level FlightAware ADS-B
08:54PM 42.1321 -99.2294 267° West 423 487 36,000  Level FlightAware ADS-B
08:55PM 42.1256 -99.3997 267° West 421 484 36,000  Level FlightAware ADS-B
08:55PM 42.1225 -99.4790 267° West 419 482 36,000  Level FlightAware ADS-B
08:56PM 42.1194 -99.5573 267° West 418 481 36,000  Level FlightAware ADS-B
08:56PM 42.1163 -99.6353 267° West 416 479 36,000  Level FlightAware ADS-B
08:57PM 42.1131 -99.7137 267° West 415 478 36,000  Level FlightAware ADS-B
08:57PM 42.1097 -99.7932 267° West 414 476 36,000  Level FlightAware ADS-B
08:58PM 42.1063 -99.8715 267° West 413 475 36,000  Level FlightAware ADS-B
08:58PM 42.1018 -99.9769 267° West 412 474 36,000  Level FlightAware ADS-B
08:59PM 42.0969 -100.0839 267° West 415 478 36,000  Level Minneapolis Center
09:00PM 42.0900 -100.2372 267° West 413 475 36,000  Level Minneapolis Center
09:01PM 42.0808 -100.4175 266° West 407 468 36,000  Level Minneapolis Center
09:02PM 42.0747 -100.5692 267° West 406 467 36,000  Level Minneapolis Center
09:03PM 42.0661 -100.7194 266° West 404 465 36,000  Level Minneapolis Center
09:09PM 42.0214 -101.5590 266° West 415 478 36,000  Level FlightAware ADS-B
09:10PM 42.0224 -101.6650 271° West 415 478 36,000  Level FlightAware ADS-B
09:10PM 42.0304 -101.7180 282° West 411 473 36,000  Level FlightAware ADS-B
09:10PM 42.0424 -101.7930 282° West 410 472 36,000  Level FlightAware ADS-B
09:11PM 42.0551 -101.8700 283° West 410 472 36,000  Level FlightAware ADS-B
09:11PM 42.0676 -101.9460 283° West 409 471 36,000  Level FlightAware ADS-B
09:12PM 42.0799 -102.0200 283° West 408 470 36,000  Level FlightAware ADS-B
09:12PM 42.0923 -102.0950 283° West 408 470 36,000  Level FlightAware ADS-B
09:13PM 42.1055 -102.1750 283° West 408 470 36,000  Level FlightAware ADS-B
09:14PM 42.1178 -102.2490 283° West 408 470 36,000  Level FlightAware ADS-B
09:14PM 42.1302 -102.3240 283° West 409 471 36,000  Level FlightAware ADS-B
09:15PM 42.1429 -102.3990 283° West 409 471 36,000  Level FlightAware ADS-B
09:15PM 42.1557 -102.4730 283° West 410 472 36,000  Level FlightAware ADS-B
09:16PM 42.1688 -102.5480 283° West 410 472 36,000  Level FlightAware ADS-B
09:16PM 42.1821 -102.6220 284° West 409 471 36,000  Level FlightAware ADS-B
09:17PM 42.1956 -102.6970 284° West 410 472 36,000  Level FlightAware ADS-B
09:17PM 42.2096 -102.7720 284° West 408 470 36,000  Level FlightAware ADS-B
09:18PM 42.2240 -102.8480 284° West 406 467 36,000  Level FlightAware ADS-B
09:18PM 42.2384 -102.9220 285° West 406 467 36,000  Level FlightAware ADS-B
09:19PM 42.2537 -102.9990 285° West 405 466 36,000  Level FlightAware ADS-B
09:19PM 42.2639 -103.0610 283° West 404 465 36,000  Level FlightAware ADS-B
09:19PM 42.2651 -103.0840 274° West 403 464 36,000  Level FlightAware ADS-B
09:19PM 42.2648 -103.1110 269° West 403 464 36,000  Level FlightAware ADS-B
09:20PM 42.2601 -103.1680 264° West 404 465 36,000  Level FlightAware ADS-B
09:20PM 42.2517 -103.2590 263° West 403 464 36,000  Level FlightAware ADS-B
09:21PM 42.2446 -103.3390 263° West 402 463 36,000  Level FlightAware ADS-B
09:21PM 42.2378 -103.4150 263° West 402 463 36,000  Level FlightAware ADS-B
09:22PM 42.2309 -103.4910 263° West 404 465 36,000  Level FlightAware ADS-B
09:22PM 42.2240 -103.5670 263° West 405 466 36,000  Level FlightAware ADS-B
09:23PM 42.2171 -103.6430 263° West 407 468 36,000  Level FlightAware ADS-B
09:23PM 42.2099 -103.7200 263° West 408 470 36,000  Level FlightAware ADS-B
09:24PM 42.2028 -103.7960 263° West 410 472 36,000  Level FlightAware ADS-B
09:24PM 42.1947 -103.8810 263° West 412 474 36,000  Level FlightAware ADS-B
09:25PM 42.1873 -103.9590 263° West 412 474 36,000 360 Level FlightAware ADS-B
09:26PM 42.1799 -104.0360 263° West 409 471 36,400 960 Climbing FlightAware ADS-B
09:26PM 42.1713 -104.1260 263° West 406 467 37,100 960 Climbing FlightAware ADS-B
09:27PM 42.1635 -104.2070 263° West 403 464 37,500 720 Climbing FlightAware ADS-B
09:27PM 42.1561 -104.2820 262° West 403 464 37,900 480 Climbing FlightAware ADS-B
09:28PM 42.1488 -104.3570 263° West 406 467 38,000 60 Climbing FlightAware ADS-B
09:28PM 42.1412 -104.4330 262° West 407 468 38,000  Level FlightAware ADS-B
09:29PM 42.1336 -104.5090 262° West 406 467 38,000  Level FlightAware ADS-B
09:29PM 42.1262 -104.5820 262° West 406 467 38,000  Level FlightAware ADS-B
09:30PM 42.1186 -104.6570 262° West 404 465 38,000  Level FlightAware ADS-B
09:30PM 42.1108 -104.7340 262° West 403 464 38,000  Level FlightAware ADS-B
09:31PM 42.1030 -104.8110 262° West 403 464 38,000  Level FlightAware ADS-B
09:31PM 42.0952 -104.8870 262° West 403 464 38,000  Level FlightAware ADS-B
09:32PM 42.0870 -104.9650 262° West 403 464 38,000  Level FlightAware ADS-B
09:32PM 42.0791 -105.0400 262° West 403 464 38,000  Level FlightAware ADS-B
09:33PM 42.0708 -105.1200 262° West 401 461 38,000  Level FlightAware ADS-B
09:34PM 42.0570 -105.2520 262° West 399 459 38,000  Level FlightAware
09:34PM 42.0460 -105.3510 262° West 405 466 38,000  Level FlightAware
09:35PM 42.0340 -105.4600 262° West 405 466 38,000  Level FlightAware
09:36PM 42.0250 -105.5360 261° West 405 466 38,000  Level FlightAware
09:37PM 42.0130 -105.6380 261° West 405 466 38,000  Level FlightAware
09:37PM 42.0040 -105.7160 261° West 405 466 38,000  Level FlightAware
09:38PM 41.9870 -105.8840 262° West 400 460 38,000  Level FlightAware
09:39PM 41.9770 -105.9740 262° West 400 460 38,000  Level FlightAware
09:39PM 41.9650 -106.0860 262° West 400 460 38,000  Level FlightAware
09:40PM 41.9520 -106.1950 261° West 401 461 38,000  Level FlightAware
09:41PM 41.9410 -106.2890 261° West 401 461 38,000  Level FlightAware
09:42PM 41.9270 -106.4100 261° West 401 461 38,000  Level FlightAware
09:42PM 41.9180 -106.4850 261° West 401 461 38,000  Level FlightAware
09:43PM 41.9060 -106.5900 261° West 401 461 38,000  Level FlightAware
09:44PM 41.8970 -106.6650 261° West 401 461 38,000  Level FlightAware
09:44PM 41.8850 -106.7650 261° West 401 461 38,000  Level FlightAware
09:45PM 41.8760 -106.8410 261° West 401 461 38,000  Level FlightAware
09:46PM 41.8640 -106.9430 261° West 401 461 38,000  Level FlightAware
09:46PM 41.8550 -107.0180 261° West 401 461 38,000  Level FlightAware
09:47PM 41.8260 -107.2440 260° West 400 460 38,000  Level FlightAware
09:48PM 41.8130 -107.3450 260° West 398 458 38,000  Level FlightAware
09:49PM 41.8000 -107.4480 260° West 399 459 38,000  Level FlightAware
09:49PM 41.7900 -107.5300 261° West 400 460 38,000  Level FlightAware
09:50PM 41.7770 -107.6330 260° West 402 463 38,000  Level FlightAware
09:51PM 41.7640 -107.7320 260° West 399 459 38,000  Level FlightAware
09:51PM 41.7530 -107.8170 260° West 397 457 38,000  Level FlightAware
09:52PM 41.7400 -107.9150 260° West 399 459 38,000  Level FlightAware
09:53PM 41.7250 -108.0270 260° West 401 461 38,000  Level FlightAware
09:53PM 41.7130 -108.1210 260° West 399 459 38,000  Level FlightAware
09:54PM 41.6980 -108.2310 260° West 400 460 38,000  Level FlightAware
09:55PM 41.6850 -108.3280 260° West 401 461 38,000  Level FlightAware
09:55PM 41.6710 -108.4350 260° West 402 463 38,000  Level FlightAware
09:56PM 41.6590 -108.5230 260° West 402 463 38,000  Level FlightAware
09:57PM 41.6450 -108.6230 259° West 404 465 38,000  Level FlightAware
09:57PM 41.6300 -108.7280 259° West 405 466 38,000  Level FlightAware
09:58PM 41.6170 -108.8280 260° West 407 468 38,000  Level FlightAware
09:59PM 41.6010 -108.9370 259° West 406 467 38,000  Level FlightAware
09:59PM 41.5900 -109.0360 262° West 407 468 38,000  Level FlightAware
10:00PM 41.5880 -109.1100 268° West 408 470 38,000  Level FlightAware
10:01PM 41.5840 -109.2570 268° West 407 468 38,000  Level FlightAware
10:02PM 41.5800 -109.3720 267° West 408 470 38,000  Level FlightAware
10:02PM 41.5770 -109.4740 268° West 408 470 38,000  Level FlightAware
10:03PM 41.5740 -109.5750 268° West 408 470 38,000  Level FlightAware
10:04PM 41.5710 -109.6840 268° West 404 465 38,000  Level FlightAware
10:04PM 41.5680 -109.7830 268° West 400 460 38,000  Level FlightAware
10:05PM 41.5640 -109.8960 267° West 400 460 38,000  Level FlightAware
10:06PM 41.5610 -109.9920 268° West 400 460 38,000  Level FlightAware
10:06PM 41.5570 -110.0830 267° West 401 461 38,000  Level FlightAware
10:07PM 41.5540 -110.1810 268° West 401 461 38,000  Level FlightAware
10:08PM 41.5490 -110.3090 267° West 392 451 38,000  Level FlightAware
10:09PM 41.5450 -110.4050 267° West 392 451 38,000  Level FlightAware
10:09PM 41.5420 -110.5090 268° West 390 449 38,000  Level FlightAware
10:10PM 41.5380 -110.6090 267° West 389 448 38,000  Level FlightAware
10:11PM 41.5340 -110.7100 267° West 387 445 38,000  Level FlightAware
10:11PM 41.5312 -110.7660 266° West 388 447 38,000  Level FlightAware ADS-B
10:12PM 41.5282 -110.8380 267° West 387 445 38,000  Level FlightAware ADS-B
10:12PM 41.5250 -110.9120 267° West 387 445 38,000  Level FlightAware ADS-B
10:13PM 41.5219 -110.9860 267° West 387 445 38,000  Level FlightAware ADS-B
10:13PM 41.5188 -111.0570 267° West 387 445 38,000  Level FlightAware ADS-B
10:14PM 41.5158 -111.1290 267° West 387 445 38,000  Level FlightAware ADS-B
10:14PM 41.5125 -111.2020 267° West 387 445 38,000  Level FlightAware ADS-B
10:15PM 41.5092 -111.2740 267° West 388 447 38,000  Level FlightAware ADS-B
10:15PM 41.5058 -111.3470 266° West 392 451 38,000  Level FlightAware ADS-B
10:16PM 41.5024 -111.4190 266° West 396 456 38,000  Level FlightAware ADS-B
10:16PM 41.4989 -111.4930 266° West 400 460 38,000  Level FlightAware ADS-B
10:17PM 41.4953 -111.5680 266° West 402 463 38,000  Level FlightAware ADS-B
10:17PM 41.4914 -111.6490 266° West 405 466 38,000  Level FlightAware ADS-B
10:18PM 41.4875 -111.7280 266° West 405 466 38,000  Level FlightAware ADS-B
10:18PM 41.4838 -111.8030 266° West 406 467 38,000  Level FlightAware ADS-B
10:19PM 41.4798 -111.8790 266° West 407 468 38,000  Level FlightAware ADS-B
10:19PM 41.4757 -111.9610 266° West 409 471 38,000  Level FlightAware ADS-B
10:20PM 41.4716 -112.0370 266° West 410 472 38,000  Level FlightAware ADS-B
10:20PM 41.4677 -112.1130 266° West 409 471 38,000  Level FlightAware ADS-B
10:21PM 41.4637 -112.1890 266° West 407 468 38,000  Level FlightAware ADS-B
10:21PM 41.4596 -112.2640 266° West 408 470 38,000  Level FlightAware ADS-B
10:22PM 41.4555 -112.3400 266° West 409 471 38,000  Level FlightAware ADS-B
10:23PM 41.4501 -112.4360 266° West 410 472 38,000  Level FlightAware ADS-B
10:23PM 41.4458 -112.5120 266° West 407 468 38,000  Level FlightAware ADS-B
10:24PM 41.4415 -112.5880 266° West 407 468 38,000  Level FlightAware ADS-B
10:24PM 41.4371 -112.6660 266° West 405 466 38,000  Level FlightAware ADS-B
10:25PM 41.4326 -112.7420 266° West 407 468 38,000  Level FlightAware ADS-B
10:25PM 41.4281 -112.8180 266° West 411 473 38,000  Level FlightAware ADS-B
10:26PM 41.4234 -112.8970 265° West 410 472 38,000  Level FlightAware ADS-B
10:26PM 41.4188 -112.9730 265° West 412 474 38,000  Level FlightAware ADS-B
10:27PM 41.4140 -113.0510 265° West 413 475 38,000  Level FlightAware ADS-B
10:27PM 41.4093 -113.1280 265° West 414 476 38,000  Level FlightAware ADS-B
10:28PM 41.4039 -113.2160 265° West 414 476 38,000  Level FlightAware ADS-B
10:28PM 41.3990 -113.2930 265° West 416 479 38,000  Level FlightAware ADS-B
10:29PM 41.3942 -113.3700 265° West 419 482 38,000  Level FlightAware ADS-B
10:29PM 41.3885 -113.4560 265° West 420 483 38,000  Level FlightAware ADS-B
10:30PM 41.3835 -113.5330 265° West 422 486 38,000  Level FlightAware ADS-B
10:30PM 41.3786 -113.6110 265° West 422 486 38,000  Level FlightAware ADS-B
10:31PM 41.3732 -113.6890 265° West 420 483 38,000  Level FlightAware ADS-B
10:31PM 41.3678 -113.7670 265° West 416 479 38,000  Level FlightAware ADS-B
10:32PM 41.3611 -113.8400 263° West 412 474 38,000  Level FlightAware ADS-B
10:32PM 41.3562 -113.8670 256° West 409 471 38,000  Level FlightAware ADS-B
10:32PM 41.3386 -113.9410 252° West 410 472 38,000  Level FlightAware ADS-B
10:33PM 41.3211 -114.0130 252° West 407 468 38,000  Level FlightAware ADS-B
10:33PM 41.3034 -114.0850 252° West 407 468 38,000  Level FlightAware ADS-B
10:34PM 41.2824 -114.1710 252° West 409 471 38,000  Level FlightAware ADS-B
10:35PM 41.2636 -114.2490 252° West 410 472 38,000  Level FlightAware ADS-B
10:35PM 41.2454 -114.3230 252° West 412 474 38,000  Level FlightAware ADS-B
10:36PM 41.2271 -114.3970 252° West 415 478 38,000  Level FlightAware ADS-B
10:36PM 41.2085 -114.4720 252° West 417 480 38,000  Level FlightAware ADS-B
10:37PM 41.1900 -114.5460 252° West 419 482 38,000  Level FlightAware ADS-B
10:37PM 41.1718 -114.6190 252° West 417 480 38,000  Level FlightAware ADS-B
10:38PM 41.1539 -114.6910 252° West 414 476 38,000  Level FlightAware ADS-B
10:38PM 41.1357 -114.7640 252° West 416 479 38,000  Level FlightAware ADS-B
10:41PM 41.0458 -115.1200 252° West 409 471 38,000  Level FlightAware ADS-B
10:41PM 41.0275 -115.1910 251° West 407 468 38,000  Level FlightAware ADS-B
10:42PM 41.0088 -115.2640 251° West 407 468 38,000  Level FlightAware ADS-B
10:42PM 40.9903 -115.3360 251° West 408 470 38,000  Level FlightAware ADS-B
10:43PM 40.9717 -115.4080 251° West 409 471 38,000  Level FlightAware ADS-B
10:47PM 40.8222 -115.9820 251° West 403 464 38,000  Level FlightAware ADS-B
10:48PM 40.7908 -116.1000 251° West 403 464 38,000  Level FlightAware ADS-B
10:48PM 40.7731 -116.1658 251° West 404 465 38,000  Level Oakland Center
10:49PM 40.7381 -116.2997 251° West 405 466 38,000  Level Oakland Center
10:50PM 40.6967 -116.4531 250° West 401 461 38,000  Level Oakland Center
10:51PM 40.6611 -116.5850 250° West 400 460 38,000  Level Oakland Center
10:52PM 40.6194 -116.7378 250° West 399 459 38,000  Level Oakland Center
10:53PM 40.5856 -116.8689 251° West 401 461 38,000  Level Oakland Center
10:59PM 40.3590 -117.7190 251° West 399 459 38,000 -60 Level FlightAware
11:00PM 40.3320 -117.8200 251° West 399 459 37,600 -780 Descending FlightAware
11:01PM 40.3040 -117.9230 250° West 401 461 36,900 -960 Descending FlightAware
11:01PM 40.2840 -117.9980 251° West 404 465 36,400 -660 Descending FlightAware
11:02PM 40.2490 -118.1260 250° West 409 471 35,900 -1,080 Descending FlightAware
11:03PM 40.2240 -118.2180 250° West 410 472 34,800 -2,340 Descending FlightAware
11:04PM 40.1990 -118.3100 250° West 413 475 33,000 -2,940 Descending FlightAware
11:04PM 40.1730 -118.4070 251° West 421 484 30,900 -2,880 Descending FlightAware
11:05PM 40.1460 -118.5020 250° West 415 478 29,200 -2,460 Descending FlightAware
11:06PM 40.1190 -118.6100 252° West 410 472 27,400 -2,340 Descending FlightAware
11:06PM 40.0990 -118.7150 256° West 404 465 25,700 -2,340 Descending FlightAware
11:07PM 40.0750 -118.8370 256° West 398 458 23,700 -2,340 Descending FlightAware
11:08PM 40.0590 -118.9210 256° West 391 450 22,300 -2,340 Descending FlightAware
11:09PM 40.0410 -119.0160 256° West 383 441 20,700 -2,280 Descending FlightAware
11:09PM 40.0250 -119.0950 255° West 376 433 19,400 -1,080 Descending FlightAware
11:10PM 40.0100 -119.1690 255° West 376 433 19,400  Level FlightAware
11:11PM 39.9960 -119.2360 255° West 376 433 19,400  Level FlightAware
11:11PM 39.9790 -119.3200 255° West 376 433 19,400  Level FlightAware
11:12PM 39.9610 -119.4080 255° West 376 433 19,400 -5,040 Level FlightAware
11:12PM 39.9230 -119.4470 218° Southwest 321 369 14,300 -6,660 Descending FlightAware
11:13PM 39.8830 -119.5050 228° Southwest 315 362 13,200 -1,560 Descending FlightAware
11:14PM 39.8500 -119.5530 228° Southwest 293 337 12,300 -1,620 Descending FlightAware
11:14PM 39.8070 -119.6130 227° Southwest 271 312 11,000 -1,440 Descending FlightAware
11:15PM 39.7770 -119.6550 227° Southwest 259 298 10,300 -1,080 Descending FlightAware
11:15PM 39.7550 -119.6860 227° Southwest 239 275 9,900 -960 Descending FlightAware
11:16PM 39.7380 -119.7100 227° Southwest 227 261 9,500 -1,200 Descending FlightAware
11:16PM 39.7270 -119.7260 228° Southwest 225 259 9,100 -1,260 Descending FlightAware
11:17PM 39.7070 -119.7540 227° Southwest 212 244 8,600 -1,200 Descending FlightAware
11:17PM 39.6970 -119.7650 220° Southwest 208 239 8,300 -1,200 Descending FlightAware
11:17PM 39.6860 -119.7690 196° South 207 238 8,100 -1,260 Descending FlightAware
11:18PM 39.6380 -119.7680 179° South 191 220 7,000 -1,320 Descending FlightAware
11:18PM 39.6140 -119.7690 182° South 177 204 6,400 -1,080 Descending FlightAware
11:19PM 39.5920 -119.7690 180° South 166 191 6,000 -900 Descending FlightAware
11:19PM 39.5700 -119.7690 180° South 166 191 5,600 -840 Descending FlightAware
11:20PM 39.5410 -119.7690 180° South 168 193 5,100 -840 Descending FlightAware
11:20PM 39.5310 -119.7690 180° South 169 194 4,900 -900 Descending FlightAware